Time;durP1;ratioP1;P1;durP2;ratioP2;P2;SDS_P1;SDS_P2;PMS_P1;PMS_P2;Temp;Humidity;BMP_temperature;BMP_pressure;BME280_temperature;BME280_humidity;BME280_pressure;Samples;Min_cycle;Max_cycle;Signal;HPM_P1;HPM_P2
2023/04/01 00:01:27;;;;;;;11.93;8.67;;;;;;;15.32;51.10;93753.75;5032793;28;20196;-50
2023/04/01 00:03:55;;;;;;;11.30;7.00;;;;;;;15.33;51.10;93762.28;5030718;28;20211;-51
2023/04/01 00:06:23;;;;;;;13.13;8.50;;;;;;;15.33;51.17;93757.13;5019967;28;20240;-57
2023/04/01 00:08:50;;;;;;;10.23;7.13;;;;;;;15.32;51.15;93760.69;5014059;28;20226;-53
2023/04/01 00:11:18;;;;;;;13.93;8.10;;;;;;;15.32;51.21;93756.31;5012885;28;20814;-54
2023/04/01 00:13:45;;;;;;;12.80;8.17;;;;;;;15.33;51.32;93757.13;5012685;28;20204;-49
2023/04/01 00:16:12;;;;;;;12.50;7.37;;;;;;;15.19;51.05;93740.00;5014274;28;20219;-50
2023/04/01 00:18:39;;;;;;;12.93;8.63;;;;;;;15.33;51.18;93764.88;5012318;28;20196;-48
2023/04/01 00:21:08;;;;;;;15.37;8.37;;;;;;;15.35;51.17;93769.81;5012781;28;20188;-52
2023/04/01 00:23:35;;;;;;;13.07;8.03;;;;;;;15.24;51.16;93753.91;5012559;28;20271;-50
2023/04/01 00:26:03;;;;;;;13.60;8.23;;;;;;;15.33;51.34;93764.88;5013821;28;20212;-51
2023/04/01 00:28:31;;;;;;;16.33;9.40;;;;;;;15.33;51.24;93759.72;5031325;28;20222;-53
2023/04/01 00:30:57;;;;;;;20.37;9.33;;;;;;;15.29;51.27;93761.88;5032132;28;20652;-51
2023/04/01 00:33:25;;;;;;;14.17;8.93;;;;;;;15.30;51.44;93766.03;5032003;28;20203;-51
2023/04/01 00:35:51;;;;;;;14.13;8.60;;;;;;;15.30;51.27;93760.88;5031146;28;20200;-56
2023/04/01 00:38:20;;;;;;;13.73;9.07;;;;;;;15.29;51.20;93759.28;5020335;28;20593;-50
2023/04/01 00:40:47;;;;;;;12.23;8.97;;;;;;;15.28;51.19;93756.88;5022304;28;20245;-51
2023/04/01 00:43:17;;;;;;;16.47;8.70;;;;;;;15.19;51.19;93738.22;5032288;28;20555;-51
2023/04/01 00:45:45;;;;;;;16.83;9.60;;;;;;;15.22;51.40;93745.56;5031657;28;20646;-50
2023/04/01 00:48:15;;;;;;;16.53;9.47;;;;;;;15.23;51.55;93738.63;5029435;28;20192;-48
2023/04/01 00:50:46;;;;;;;15.17;8.93;;;;;;;15.21;51.42;93733.69;5012185;28;20698;-50
2023/04/01 00:53:15;;;;;;;14.43;8.83;;;;;;;15.18;51.38;93738.41;5011085;28;20228;-54
2023/04/01 00:55:50;;;;;;;15.50;9.03;;;;;;;15.19;51.61;93742.56;5012293;28;20562;-51
2023/04/01 00:58:21;;;;;;;14.43;9.83;;;;;;;15.17;51.61;93731.69;5012451;28;20196;-48
2023/04/01 01:00:49;;;;;;;13.33;8.80;;;;;;;15.15;51.61;93724.13;5028228;28;20199;-55
2023/04/01 01:03:16;;;;;;;14.27;9.40;;;;;;;15.12;51.52;93710.84;5032036;28;20192;-48
2023/04/01 01:06:10;;;;;;;14.73;9.13;;;;;;;15.11;51.72;93706.66;5030983;28;20223;-52
2023/04/01 01:08:51;;;;;;;15.13;9.33;;;;;;;15.06;51.75;93708.03;5031208;28;20200;-48
2023/04/01 01:11:26;;;;;;;18.67;9.90;;;;;;;15.02;51.86;93701.66;5029336;28;20191;-47
2023/04/01 01:14:00;;;;;;;16.10;9.37;;;;;;;14.98;51.96;93699.66;5027076;28;20290;-47
2023/04/01 01:16:30;;;;;;;13.70;8.30;;;;;;;14.95;52.10;93695.69;5011762;28;20255;-47
2023/04/01 01:19:09;;;;;;;16.80;8.47;;;;;;;14.94;51.73;93694.13;5011393;28;20189;-49
2023/04/01 01:22:11;;;;;;;13.80;9.13;;;;;;;14.88;52.12;93681.97;5014839;28;20192;-48
2023/04/01 01:24:53;;;;;;;13.30;9.00;;;;;;;14.89;52.04;93678.41;5031107;28;20251;-47
2023/04/01 01:27:23;;;;;;;14.97;9.30;;;;;;;14.84;52.12;93673.03;5030865;28;20227;-47
2023/04/01 01:30:06;;;;;;;15.73;9.07;;;;;;;14.88;52.01;93669.09;5031157;28;20249;-48
2023/04/01 01:32:56;;;;;;;15.43;8.83;;;;;;;14.86;52.01;93660.00;5016275;28;20199;-48
2023/04/01 01:35:30;;;;;;;10.90;7.93;;;;;;;14.84;51.93;93664.53;5018018;28;20266;-49
2023/04/01 01:38:01;;;;;;;11.73;8.20;;;;;;;14.68;51.95;93648.41;5031044;28;20249;-50
2023/04/01 01:40:30;;;;;;;14.93;8.00;;;;;;;14.80;52.09;93661.53;5030840;28;20195;-49
2023/04/01 01:43:00;;;;;;;15.40;7.83;;;;;;;14.80;52.01;93669.25;5030855;28;20191;-50
2023/04/01 01:45:29;;;;;;;13.17;7.93;;;;;;;14.65;52.08;93648.00;5030923;28;20191;-48
2023/04/01 01:47:58;;;;;;;10.60;7.10;;;;;;;14.78;52.13;93671.22;5028698;28;20223;-50
2023/04/01 01:50:28;;;;;;;11.63;7.70;;;;;;;14.77;52.01;93662.72;5030285;28;20223;-53
2023/04/01 01:53:04;;;;;;;16.50;7.87;;;;;;;14.77;52.07;93651.63;5012361;28;20613;-51
2023/04/01 01:55:33;;;;;;;11.07;6.93;;;;;;;14.74;52.02;93659.72;5010941;28;20199;-54
2023/04/01 01:58:05;;;;;;;10.63;7.10;;;;;;;14.76;52.04;93661.09;5010849;28;20193;-51
2023/04/01 02:00:33;;;;;;;11.60;7.20;;;;;;;14.78;51.93;93654.00;5010849;28;20192;-47
2023/04/01 02:03:01;;;;;;;9.43;6.80;;;;;;;14.78;51.99;93648.06;5010275;28;20196;-51
2023/04/01 02:05:31;;;;;;;10.50;6.60;;;;;;;14.78;51.96;93643.72;5010288;28;20192;-49
2023/04/01 02:08:03;;;;;;;12.63;6.63;;;;;;;14.78;51.86;93650.66;5010821;28;20668;-50
2023/04/01 02:10:34;;;;;;;16.40;6.30;;;;;;;14.78;51.85;93632.63;5010433;28;20180;-50
2023/04/01 02:13:06;;;;;;;11.07;6.37;;;;;;;14.79;51.86;93637.56;5010697;28;20201;-48
2023/04/01 02:15:42;;;;;;;12.13;7.03;;;;;;;14.79;51.79;93632.44;5010290;28;20189;-48
2023/04/01 02:18:10;;;;;;;10.37;6.63;;;;;;;14.81;51.73;93637.41;5011070;28;20184;-50
2023/04/01 02:20:39;;;;;;;10.40;6.07;;;;;;;14.79;51.83;93624.72;5010301;28;20207;-47
2023/04/01 02:23:08;;;;;;;13.53;6.47;;;;;;;14.82;51.73;93620.97;5010411;28;20652;-46
2023/04/01 02:25:37;;;;;;;12.27;6.73;;;;;;;14.83;51.60;93632.84;5010403;28;20282;-48
2023/04/01 02:28:05;;;;;;;11.13;5.93;;;;;;;14.83;51.60;93635.44;5010199;28;20591;-47
2023/04/01 02:30:35;;;;;;;11.73;6.23;;;;;;;14.83;51.54;93643.16;5010127;28;20192;-50
2023/04/01 02:33:04;;;;;;;8.67;6.13;;;;;;;14.85;51.65;93643.75;5010252;28;20621;-50
2023/04/01 02:35:31;;;;;;;10.83;6.03;;;;;;;14.87;51.43;93639.22;5010010;28;20196;-50
2023/04/01 02:37:59;;;;;;;12.10;6.33;;;;;;;14.86;51.58;93644.56;5010619;28;20258;-53
2023/04/01 02:40:26;;;;;;;9.00;6.00;;;;;;;14.89;51.69;93644.16;5010266;28;20588;-48
2023/04/01 02:42:53;;;;;;;6.73;5.70;;;;;;;14.88;51.51;93645.94;5009983;28;20598;-48
2023/04/01 02:45:20;;;;;;;10.37;6.20;;;;;;;14.87;51.63;93641.00;5010229;28;20560;-48
2023/04/01 02:47:47;;;;;;;7.83;5.67;;;;;;;14.90;51.51;93649.13;5009480;28;20224;-48
2023/04/01 02:50:13;;;;;;;11.07;5.73;;;;;;;14.90;51.48;93653.50;5010187;28;20208;-48
2023/04/01 02:52:40;;;;;;;10.13;5.90;;;;;;;14.91;51.82;93652.50;5009680;28;20200;-52
2023/04/01 02:55:09;;;;;;;9.23;5.63;;;;;;;14.90;51.67;93654.28;5010132;28;20192;-48
2023/04/01 02:57:36;;;;;;;11.47;6.13;;;;;;;14.87;51.68;93657.22;5009633;28;20203;-50
2023/04/01 03:00:05;;;;;;;9.67;5.53;;;;;;;14.90;51.81;93674.88;5009882;28;20691;-51
2023/04/01 03:02:31;;;;;;;10.27;6.50;;;;;;;14.79;51.71;93655.59;5009822;28;20226;-50
2023/04/01 03:04:58;;;;;;;10.93;5.63;;;;;;;14.90;51.78;93672.31;5009659;28;20263;-49
2023/04/01 03:07:25;;;;;;;11.83;6.87;;;;;;;14.89;51.85;93673.25;5009614;28;20662;-51
2023/04/01 03:09:52;;;;;;;8.93;5.73;;;;;;;14.88;51.74;93674.25;5009588;28;20254;-52
2023/04/01 03:12:20;;;;;;;11.73;6.33;;;;;;;14.89;51.80;93667.31;5009568;28;20200;-49
2023/04/01 03:14:47;;;;;;;10.43;6.00;;;;;;;14.89;51.70;93681.00;5009337;28;20189;-51
2023/04/01 03:17:13;;;;;;;10.90;6.53;;;;;;;14.89;51.79;93667.31;5009482;28;20653;-49
2023/04/01 03:19:40;;;;;;;11.27;5.60;;;;;;;14.89;51.71;93675.84;5021374;28;20663;-48
2023/04/01 03:22:07;;;;;;;8.57;6.40;;;;;;;14.81;52.01;93665.72;5028936;28;20554;-49
2023/04/01 03:24:34;;;;;;;8.83;6.33;;;;;;;14.90;51.98;93692.91;5028885;28;20666;-49
2023/04/01 03:27:00;;;;;;;7.90;5.70;;;;;;;14.90;51.99;93689.53;5029217;28;20687;-50
2023/04/01 03:29:28;;;;;;;9.83;5.97;;;;;;;14.90;52.04;93679.25;5028626;28;20250;-49
2023/04/01 03:31:57;;;;;;;11.17;6.63;;;;;;;14.89;52.06;93681.00;5028721;28;20605;-50
2023/04/01 03:34:24;;;;;;;10.23;5.87;;;;;;;14.88;52.04;93676.84;5016709;28;20188;-48
2023/04/01 03:36:51;;;;;;;10.17;5.93;;;;;;;14.89;52.02;93667.31;5009640;28;20583;-50
2023/04/01 03:39:19;;;;;;;10.63;6.23;;;;;;;14.89;51.86;93667.31;5009602;28;20219;-50
2023/04/01 03:41:46;;;;;;;10.90;5.83;;;;;;;14.87;52.55;93651.28;5009427;28;20672;-49
2023/04/01 03:44:13;;;;;;;7.10;5.57;;;;;;;14.83;52.26;93632.06;5027433;28;20211;-49
2023/04/01 03:46:42;;;;;;;12.97;6.07;;;;;;;14.74;52.09;93600.53;5029297;28;20212;-47
2023/04/01 03:49:11;;;;;;;9.53;6.10;;;;;;;14.88;52.22;93612.47;5028883;28;20183;-48
2023/04/01 03:51:38;;;;;;;9.27;5.57;;;;;;;14.85;52.28;93596.63;5028886;28;20286;-49
2023/04/01 03:54:05;;;;;;;9.87;6.13;;;;;;;14.87;52.54;93589.50;5029110;28;20231;-49
2023/04/01 03:56:32;;;;;;;11.80;6.90;;;;;;;14.87;52.58;93579.22;5025074;28;20280;-50
2023/04/01 03:59:03;;;;;;;11.63;6.50;;;;;;;14.87;52.50;93572.28;5009122;28;20845;-48
2023/04/01 04:01:30;;;;;;;10.07;6.10;;;;;;;14.79;52.51;93560.38;5008959;28;20628;-48
2023/04/01 04:03:59;;;;;;;10.80;5.67;;;;;;;14.84;52.65;93571.88;5021369;28;20283;-49
2023/04/01 04:06:27;;;;;;;8.57;5.63;;;;;;;14.86;52.71;93562.97;5028377;28;20636;-50
2023/04/01 04:08:56;;;;;;;9.70;5.93;;;;;;;14.86;52.70;93559.63;5028883;28;20199;-48
2023/04/01 04:11:23;;;;;;;9.87;5.73;;;;;;;14.87;52.71;93558.63;5028884;28;20195;-49
2023/04/01 04:13:52;;;;;;;8.17;5.63;;;;;;;14.86;52.85;93547.53;5028761;28;20663;-50
2023/04/01 04:16:19;;;;;;;8.53;5.27;;;;;;;14.87;52.57;93535.47;5024749;28;20180;-47
2023/04/01 04:18:46;;;;;;;7.47;5.87;;;;;;;14.86;52.85;93539.03;5009584;28;20192;-47
2023/04/01 04:21:15;;;;;;;8.27;5.43;;;;;;;14.87;52.60;93532.88;5009110;28;20642;-48
2023/04/01 04:23:42;;;;;;;8.80;5.57;;;;;;;14.87;52.83;93540.59;5009286;28;20645;-52
2023/04/01 04:26:11;;;;;;;8.83;5.67;;;;;;;14.77;52.61;93528.09;5009735;28;20184;-50
2023/04/01 04:28:38;;;;;;;9.40;6.13;;;;;;;14.88;52.83;93535.25;5016206;28;20701;-49
2023/04/01 04:31:06;;;;;;;8.13;5.40;;;;;;;14.89;52.63;93547.13;5024010;28;20196;-49
2023/04/01 04:33:33;;;;;;;9.47;5.30;;;;;;;14.90;52.66;93535.09;5013045;28;20191;-48
2023/04/01 04:36:00;;;;;;;7.43;5.57;;;;;;;14.90;52.84;93543.59;5015975;28;20719;-48
2023/04/01 04:38:29;;;;;;;8.53;5.43;;;;;;;14.88;52.97;93545.56;5032154;28;20191;-48
2023/04/01 04:40:55;;;;;;;8.80;5.43;;;;;;;14.89;52.71;93523.97;5032406;28;20287;-49
2023/04/01 04:43:23;;;;;;;9.03;5.43;;;;;;;14.91;52.99;93516.06;5027230;28;20200;-47
2023/04/01 04:45:49;;;;;;;9.23;5.40;;;;;;;14.91;52.96;93513.50;5013163;28;20196;-49
2023/04/01 04:48:20;;;;;;;9.07;5.63;;;;;;;14.92;52.75;93520.22;5012123;28;20232;-47
2023/04/01 04:50:48;;;;;;;9.40;5.70;;;;;;;14.88;52.67;93506.94;5011948;28;20211;-47
2023/04/01 04:53:15;;;;;;;9.10;5.40;;;;;;;14.95;52.84;93507.78;5011673;28;20255;-48
2023/04/01 04:55:45;;;;;;;10.53;6.07;;;;;;;14.97;52.72;93513.50;5015607;28;20282;-48
2023/04/01 04:58:13;;;;;;;13.63;6.80;;;;;;;14.98;52.89;93515.13;5030154;28;20196;-50
2023/04/01 05:00:39;;;;;;;8.53;5.43;;;;;;;14.87;52.83;93486.56;5027179;28;20200;-51
2023/04/01 05:03:06;;;;;;;9.93;5.33;;;;;;;14.91;52.83;93474.88;5012007;28;20192;-51
2023/04/01 05:05:34;;;;;;;6.73;5.10;;;;;;;15.02;52.82;93493.13;5013012;28;20601;-51
2023/04/01 05:08:02;;;;;;;8.43;5.00;;;;;;;15.04;52.59;93490.38;5020698;28;20234;-49
2023/04/01 05:10:29;;;;;;;8.93;5.20;;;;;;;15.08;52.58;93489.00;5011837;28;20184;-49
2023/04/01 05:12:57;;;;;;;9.47;6.07;;;;;;;15.10;52.52;93488.78;5011765;28;20185;-51
2023/04/01 05:15:24;;;;;;;9.87;4.93;;;;;;;15.11;52.44;93477.50;5013459;28;20532;-52
2023/04/01 05:17:51;;;;;;;9.13;6.07;;;;;;;15.10;52.49;93461.25;5011482;28;20859;-51
2023/04/01 05:20:18;;;;;;;9.37;4.00;;;;;;;15.28;71.59;93468.41;5013290;28;20276;-52
2023/04/01 05:22:45;;;;;;;6.17;3.33;;;;;;;15.89;77.16;93442.50;5011309;28;20196;-53
2023/04/01 05:25:12;;;;;;;20.53;3.60;;;;;;;16.55;74.44;93457.78;5011391;28;20593;-50
2023/04/01 05:27:39;;;;;;;15.63;4.30;;;;;;;17.13;72.85;93451.75;5011721;28;20212;-50
2023/04/01 05:30:08;;;;;;;10.83;3.60;;;;;;;17.68;70.39;93446.78;5011482;28;20184;-52
2023/04/01 05:32:35;;;;;;;8.67;3.80;;;;;;;18.24;68.06;93458.06;5011521;28;20197;-52
2023/04/01 05:35:02;;;;;;;9.87;4.00;;;;;;;18.85;65.90;93472.72;5012204;28;20191;-52
2023/04/01 05:37:28;;;;;;;4.60;3.50;;;;;;;19.41;63.43;93430.09;5029690;28;20192;-52
2023/04/01 05:39:55;;;;;;;7.33;4.20;;;;;;;20.05;61.38;93438.06;5028321;28;20195;-49
2023/04/01 05:42:22;;;;;;;8.73;4.33;;;;;;;20.70;57.08;93461.25;5030854;28;20184;-49
2023/04/01 05:44:49;;;;;;;5.70;3.43;;;;;;;21.26;56.40;93438.91;5017780;28;20192;-50
2023/04/01 05:47:17;;;;;;;6.10;3.40;;;;;;;22.02;55.67;93464.56;5030713;28;20590;-51
2023/04/01 05:49:43;;;;;;;6.70;3.70;;;;;;;22.61;54.52;93454.44;5027196;28;20257;-49
2023/04/01 05:52:10;;;;;;;8.55;3.97;;;;;;;23.20;52.75;93459.06;5023246;28;20208;-49
2023/04/01 05:54:37;;;;;;;7.07;3.50;;;;;;;23.75;51.31;93442.34;5020825;28;20228;-53
2023/04/01 05:57:04;;;;;;;6.13;4.00;;;;;;;24.31;49.60;93452.38;5024704;28;20247;-53
2023/04/01 05:59:32;;;;;;;5.53;3.50;;;;;;;24.67;48.17;93424.63;5017860;28;20188;-57
2023/04/01 06:01:59;;;;;;;4.88;3.80;;;;;;;25.35;47.15;93451.53;5024198;28;20279;-53
2023/04/01 06:04:33;;;;;;;4.95;3.47;;;;;;;25.90;46.24;93444.75;5021374;28;20187;-49
2023/04/01 06:07:00;;;;;;;5.95;3.88;;;;;;;26.37;45.33;93448.88;5028425;28;20217;-51
2023/04/01 06:09:30;;;;;;;4.60;3.55;;;;;;;26.74;44.22;93458.25;5022474;28;20248;-51
2023/04/01 06:12:18;;;;;;;6.82;3.60;;;;;;;27.02;44.28;93446.31;5026163;28;20188;-49
2023/04/01 06:14:57;;;;;;;4.82;3.85;;;;;;;27.14;43.91;93444.19;5025056;28;20194;-49
2023/04/01 06:17:31;;;;;;;6.18;3.20;;;;;;;27.12;43.65;93442.91;5023363;28;20214;-52
2023/04/01 06:20:09;;;;;;;7.07;3.83;;;;;;;27.05;44.06;93445.00;5016823;28;20263;-53
2023/04/01 06:22:52;;;;;;;5.97;3.50;;;;;;;26.92;43.58;93444.53;5015879;28;20283;-52
2023/04/01 06:25:55;;;;;;;4.63;3.28;;;;;;;26.77;44.31;93469.00;5021057;28;20193;-49
2023/04/01 06:28:53;;;;;;;7.65;3.55;;;;;;;26.62;44.33;93453.28;5021949;28;20311;-49
2023/04/01 06:31:33;;;;;;;7.25;3.92;;;;;;;26.50;44.30;93447.56;5025023;28;20222;-48
2023/04/01 06:34:18;;;;;;;5.50;3.25;;;;;;;26.39;44.76;93432.91;5018050;28;20184;-49
2023/04/01 06:37:01;;;;;;;6.78;3.10;;;;;;;26.27;44.91;93449.69;5024016;28;20634;-49
2023/04/01 06:39:47;;;;;;;5.63;3.22;;;;;;;26.10;45.14;93428.22;5021441;28;20207;-49
2023/04/01 06:42:36;;;;;;;6.57;3.10;;;;;;;25.99;45.55;93411.75;5025821;28;20279;-50
2023/04/01 06:45:14;;;;;;;4.97;3.35;;;;;;;25.82;45.27;93397.34;5024053;28;20203;-49
2023/04/01 06:47:55;;;;;;;6.45;3.15;;;;;;;25.65;45.83;93410.72;5016555;28;20207;-49
2023/04/01 06:50:29;;;;;;;6.75;3.40;;;;;;;25.50;46.04;93419.31;5022931;28;20617;-50
2023/04/01 06:53:07;;;;;;;6.90;3.53;;;;;;;25.37;46.03;93402.31;5015758;28;20232;-49
2023/04/01 06:55:41;;;;;;;3.95;3.10;;;;;;;25.23;46.47;93396.03;5017074;28;20664;-49
2023/04/01 06:58:16;;;;;;;5.68;3.58;;;;;;;25.14;46.42;93392.34;5019695;28;20196;-55
2023/04/01 07:00:47;;;;;;;5.43;3.40;;;;;;;24.99;46.77;93401.69;5013540;28;20190;-49
2023/04/01 07:03:21;;;;;;;9.63;3.60;;;;;;;24.83;47.01;93383.59;5021940;28;20192;-49
2023/04/01 07:05:48;;;;;;;4.95;3.13;;;;;;;24.71;46.88;93404.75;5021490;28;20630;-47
2023/04/01 07:08:22;;;;;;;5.65;3.50;;;;;;;24.55;47.12;93406.53;5028886;28;20230;-48
2023/04/01 07:10:52;;;;;;;6.43;3.97;;;;;;;24.48;47.25;93409.38;5021271;28;20196;-49
2023/04/01 07:13:24;;;;;;;8.50;4.07;;;;;;;24.37;47.36;93392.09;5019626;28;20662;-49
2023/04/01 07:15:59;;;;;;;8.30;3.97;;;;;;;24.38;47.37;93385.03;5018153;28;20210;-49
2023/04/01 07:18:35;;;;;;;6.90;4.05;;;;;;;24.31;47.47;93381.81;5015246;28;20216;-48
2023/04/01 07:21:03;;;;;;;4.15;3.53;;;;;;;24.22;47.52;93403.22;5019366;28;20202;-48
2023/04/01 07:23:38;;;;;;;7.78;4.68;;;;;;;24.14;47.49;93408.94;5022177;28;20273;-49
2023/04/01 07:26:15;;;;;;;7.22;4.65;;;;;;;24.09;47.32;93421.16;5022806;28;20176;-52
2023/04/01 07:28:42;;;;;;;6.75;3.40;;;;;;;24.01;47.44;93412.78;5017555;28;20207;-50
2023/04/01 07:31:20;;;;;;;4.93;3.95;;;;;;;23.98;47.98;93371.47;5021493;28;20210;-50
2023/04/01 07:33:59;;;;;;;6.75;3.83;;;;;;;24.01;47.90;93427.66;5014797;28;20192;-50
2023/04/01 07:36:38;;;;;;;5.05;3.35;;;;;;;24.02;47.62;93390.84;5020486;28;20194;-49
2023/04/01 07:39:19;;;;;;;22.98;4.10;;;;;;;23.97;47.93;93409.09;5017799;28;20191;-50
2023/04/01 07:41:54;;;;;;;4.78;3.92;;;;;;;23.92;48.18;93422.13;5022771;28;20191;-49
2023/04/01 07:44:28;;;;;;;6.35;3.55;;;;;;;23.45;48.14;93335.88;5021333;28;20199;-48
2023/04/01 07:47:05;;;;;;;9.77;4.05;;;;;;;23.57;48.08;93367.78;5017025;28;20183;-51
2023/04/01 07:49:42;;;;;;;8.65;3.75;;;;;;;23.67;47.66;93401.84;5017004;28;20219;-51
2023/04/01 07:52:16;;;;;;;10.80;3.78;;;;;;;23.44;47.64;93361.16;5015835;28;20206;-49
2023/04/01 07:54:49;;;;;;;8.52;4.40;;;;;;;23.55;47.28;93393.34;5013865;28;20240;-49
2023/04/01 07:57:21;;;;;;;6.93;3.90;;;;;;;23.48;47.31;93393.56;5017009;28;20193;-49
2023/04/01 07:59:57;;;;;;;10.60;4.00;;;;;;;23.39;47.30;93381.22;5010915;28;20929;-50
2023/04/01 08:02:35;;;;;;;5.55;4.00;;;;;;;23.29;47.04;93381.94;5021088;28;20203;-50
2023/04/01 08:05:15;;;;;;;5.07;3.88;;;;;;;23.22;47.03;93387.34;5017866;28;20238;-49
2023/04/01 08:07:46;;;;;;;9.40;4.40;;;;;;;23.15;47.10;93378.16;5018133;28;20196;-50
2023/04/01 08:10:21;;;;;;;6.93;3.95;;;;;;;23.04;46.75;93351.97;5017490;28;20303;-49
2023/04/01 08:12:59;;;;;;;4.95;4.38;;;;;;;23.21;46.56;93364.91;5016278;28;20860;-49
2023/04/01 08:15:30;;;;;;;7.20;3.92;;;;;;;23.24;46.85;93369.63;5022989;28;20206;-49
2023/04/01 08:18:12;;;;;;;5.93;3.65;;;;;;;23.28;46.45;93360.28;5022586;28;20192;-49
2023/04/01 08:20:45;;;;;;;7.68;4.53;;;;;;;23.36;46.57;93353.00;5013119;28;20908;-50
2023/04/01 08:23:16;;;;;;;4.47;3.63;;;;;;;23.40;46.47;93333.22;5020829;28;20671;-50
2023/04/01 08:25:51;;;;;;;6.22;4.05;;;;;;;23.45;46.24;93341.88;5016920;28;20204;-49
2023/04/01 08:28:25;;;;;;;8.20;4.10;;;;;;;23.49;46.26;93337.75;5017720;28;20214;-53
2023/04/01 08:30:57;;;;;;;4.85;3.85;;;;;;;23.65;46.30;93333.41;5021022;28;20280;-48
2023/04/01 08:33:27;;;;;;;5.97;3.85;;;;;;;23.92;45.96;93316.84;5019134;28;20199;-51
2023/04/01 08:35:58;;;;;;;6.18;3.72;;;;;;;24.37;45.37;93302.41;5018879;28;20263;-50
2023/04/01 08:38:31;;;;;;;4.75;3.67;;;;;;;24.78;44.60;93280.59;5020894;28;20234;-49
2023/04/01 08:41:15;;;;;;;6.68;4.50;;;;;;;25.20;44.33;93278.78;5018509;28;20207;-53
2023/04/01 08:44:05;;;;;;;6.18;4.32;;;;;;;25.58;43.56;93253.09;5018967;28;20196;-49
2023/04/01 08:47:10;;;;;;;6.47;3.92;;;;;;;25.92;43.56;93279.47;5013831;28;20270;-52
2023/04/01 08:50:16;;;;;;;11.88;4.20;;;;;;;26.09;43.04;93274.69;4946254;28;20226;-50
2023/04/01 08:52:50;;;;;;;4.55;3.55;;;;;;;26.25;42.99;93267.53;4944984;28;20210;-49
2023/04/01 08:55:38;;;;;;;6.53;4.13;;;;;;;26.32;41.90;93262.00;4943320;28;20202;-55
2023/04/01 08:58:28;;;;;;;11.30;4.45;;;;;;;26.55;41.58;93273.69;4944367;28;20294;-49
2023/04/01 09:00:58;;;;;;;5.65;3.47;;;;;;;26.45;41.17;93282.41;4946898;28;20195;-49
2023/04/01 09:04:09;;;;;;;6.88;3.92;;;;;;;26.27;40.82;93273.28;4949746;28;20197;-50
2023/04/01 09:06:59;;;;;;;7.15;3.97;;;;;;;26.20;40.53;93281.44;4945346;28;20697;-50
2023/04/01 09:09:57;;;;;;;5.97;4.03;;;;;;;26.14;40.52;93282.53;4951207;28;20261;-52
2023/04/01 09:12:40;;;;;;;8.60;3.95;;;;;;;26.07;40.46;93281.25;4950386;28;20197;-55
2023/04/01 09:15:31;;;;;;;9.90;3.90;;;;;;;26.02;40.30;93264.47;4941533;29;20229;-52
2023/04/01 09:18:16;;;;;;;9.95;3.85;;;;;;;25.98;40.22;93275.78;4950985;29;20614;-51
2023/04/01 09:20:53;;;;;;;7.70;4.18;;;;;;;25.94;40.83;93267.66;4950898;29;20190;-53
2023/04/01 09:23:42;;;;;;;8.95;3.38;;;;;;;25.93;41.48;93254.84;4950125;29;20586;-58
2023/04/01 09:26:29;;;;;;;6.35;3.40;;;;;;;25.75;41.43;93243.09;4978950;28;20207;-52
2023/04/01 09:29:07;;;;;;;7.20;3.50;;;;;;;25.70;40.63;93246.50;5030961;28;20336;-56
2023/04/01 09:31:53;;;;;;;8.82;3.70;;;;;;;25.57;40.70;93239.22;5021106;28;20287;-51
2023/04/01 09:34:32;;;;;;;4.65;3.30;;;;;;;25.50;40.33;93243.94;5011126;28;20703;-55
2023/04/01 09:37:21;;;;;;;7.70;3.72;;;;;;;25.45;40.62;93238.72;5011765;28;20287;-50
2023/04/01 09:40:09;;;;;;;6.25;3.40;;;;;;;25.36;40.44;93233.25;5011454;28;20304;-53
2023/04/01 09:42:56;;;;;;;10.38;3.72;;;;;;;25.32;40.02;93221.72;5011097;28;20654;-51
2023/04/01 09:45:38;;;;;;;7.55;3.78;;;;;;;25.36;39.93;93207.06;5011146;28;20193;-51
2023/04/01 09:48:16;;;;;;;4.45;2.95;;;;;;;25.51;39.85;93207.00;5011408;28;20211;-52
2023/04/01 09:50:56;;;;;;;4.32;3.53;;;;;;;25.73;39.76;93198.84;5011049;28;20642;-52
2023/04/01 09:53:43;;;;;;;5.82;3.17;;;;;;;25.98;39.53;93191.94;5010606;28;20226;-51
2023/04/01 09:56:43;;;;;;;7.35;3.90;;;;;;;26.23;38.78;93191.03;5010657;28;20597;-51
2023/04/01 09:59:48;;;;;;;7.57;3.33;;;;;;;26.41;39.03;93181.72;5010869;28;20204;-52
2023/04/01 10:03:06;;;;;;;3.90;3.10;;;;;;;26.56;38.55;93179.06;5010764;28;20267;-51
2023/04/01 10:06:02;;;;;;;5.50;3.05;;;;;;;26.71;38.45;93163.19;5011105;28;20199;-50
2023/04/01 10:08:59;;;;;;;7.15;3.13;;;;;;;26.74;38.38;93172.34;5010668;28;20224;-52
2023/04/01 10:12:08;;;;;;;4.47;2.92;;;;;;;26.75;38.10;93177.31;5010890;28;20193;-57
2023/04/01 10:14:59;;;;;;;5.03;2.95;;;;;;;26.70;38.47;93171.34;4950127;29;20638;-51
2023/04/01 10:18:05;;;;;;;6.32;3.15;;;;;;;26.63;37.94;93163.75;4950110;29;20238;-52
2023/04/01 10:20:55;;;;;;;5.25;3.00;;;;;;;26.20;38.13;93102.47;4949872;29;20198;-53
2023/04/01 10:23:37;;;;;;;6.10;3.28;;;;;;;26.54;38.09;93167.25;4949675;29;20516;-55
2023/04/01 10:26:28;;;;;;;5.47;2.80;;;;;;;26.54;38.07;93160.16;4949499;28;20202;-55
2023/04/01 10:29:39;;;;;;;8.73;2.97;;;;;;;26.54;37.59;93164.63;4874106;29;20292;-56
2023/04/01 10:32:42;;;;;;;3.20;2.53;;;;;;;26.52;37.94;93146.56;4870969;29;20758;-51
2023/04/01 10:35:33;;;;;;;5.75;2.67;;;;;;;26.40;37.80;93148.72;4819038;29;20587;-48
2023/04/01 10:38:48;;;;;;;5.68;2.92;;;;;;;26.30;37.35;93154.03;4782421;30;20585;-51
2023/04/01 10:41:50;;;;;;;16.98;3.60;;;;;;;26.19;37.74;93140.22;4746912;30;20694;-53
2023/04/01 10:44:52;;;;;;;5.40;2.95;;;;;;;26.03;37.66;93139.50;4746722;30;20201;-51
2023/04/01 10:48:00;;;;;;;6.32;3.10;;;;;;;25.82;37.77;93138.88;4711989;30;20229;-51
2023/04/01 10:50:59;;;;;;;3.92;3.10;;;;;;;25.62;37.77;93133.69;4718129;30;20241;-51
2023/04/01 10:53:39;;;;;;;4.95;2.95;;;;;;;25.42;37.93;93109.16;4729086;30;20242;-51
2023/04/01 10:56:48;;;;;;;7.05;3.60;;;;;;;25.25;38.02;93111.31;4729268;30;20722;-55
2023/04/01 10:59:46;;;;;;;7.97;2.92;;;;;;;25.06;37.89;93110.31;4711334;30;20269;-55
2023/04/01 11:02:46;;;;;;;4.85;2.67;;;;;;;24.90;38.05;93099.09;4711879;30;20214;-52
2023/04/01 11:06:00;;;;;;;3.45;2.60;;;;;;;24.75;38.18;93111.16;4715798;30;20762;-57
2023/04/01 11:09:04;;;;;;;3.58;2.88;;;;;;;24.61;38.15;93109.31;4746697;30;20247;-50
2023/04/01 11:12:15;;;;;;;6.63;2.70;;;;;;;24.53;37.95;93087.13;4746515;30;20208;-57
2023/04/01 11:15:22;;;;;;;5.78;2.90;;;;;;;24.40;38.14;93108.56;4769265;29;20251;-52
2023/04/01 11:18:30;;;;;;;3.20;2.58;;;;;;;24.28;38.23;93108.81;4818461;29;20251;-53
2023/04/01 11:21:23;;;;;;;3.42;2.25;;;;;;;24.02;38.22;93090.50;4818548;29;20682;-53
2023/04/01 11:24:08;;;;;;;3.10;2.50;;;;;;;23.98;38.10;93120.78;4817101;29;20290;-53
2023/04/01 11:26:45;;;;;;;6.13;2.70;;;;;;;23.85;38.25;93155.22;4818503;29;20198;-52
2023/04/01 11:29:36;;;;;;;5.97;2.80;;;;;;;23.70;38.43;93144.72;4818706;29;20238;-51
2023/04/01 11:32:13;;;;;;;7.18;3.08;;;;;;;23.52;38.31;93169.44;4853228;29;20205;-52
2023/04/01 11:34:58;;;;;;;4.47;2.85;;;;;;;23.35;38.89;93174.03;4857144;29;20601;-54
2023/04/01 11:37:47;;;;;;;4.72;2.67;;;;;;;23.09;39.07;93188.75;4873140;29;20220;-51
2023/04/01 11:40:28;;;;;;;3.45;2.45;;;;;;;22.91;39.36;93232.44;4873675;29;20902;-51
2023/04/01 11:43:02;;;;;;;7.18;3.25;;;;;;;22.74;39.74;93247.41;4873427;29;20196;-51
2023/04/01 11:45:37;;;;;;;8.93;3.25;;;;;;;22.53;40.20;93283.69;4873278;29;20276;-50
2023/04/01 11:48:27;;;;;;;3.35;2.60;;;;;;;22.09;40.55;93295.97;4873206;29;20609;-50
2023/04/01 11:51:13;;;;;;;4.47;2.50;;;;;;;22.00;41.57;93339.84;4891846;29;20314;-50
2023/04/01 11:53:49;;;;;;;5.05;3.10;;;;;;;21.68;42.09;93351.94;4945348;28;20231;-49
2023/04/01 11:56:36;;;;;;;5.15;2.85;;;;;;;21.48;42.96;93366.19;5009615;28;20191;-50
2023/04/01 11:59:45;;;;;;;7.90;2.92;;;;;;;21.19;43.47;93352.44;5009604;28;20286;-53
2023/04/01 12:02:19;;;;;;;6.97;2.45;;;;;;;20.99;44.11;93372.91;4929642;29;20198;-53
2023/04/01 12:05:03;;;;;;;3.30;2.33;;;;;;;20.74;44.63;93353.25;4929203;28;20199;-50
2023/04/01 12:07:52;;;;;;;5.33;2.60;;;;;;;20.52;45.15;93342.75;4929579;29;20903;-49
2023/04/01 12:10:21;;;;;;;4.77;2.43;;;;;;;20.39;45.49;93347.38;4929128;29;20317;-50
2023/04/01 12:12:57;;;;;;;6.80;2.23;;;;;;;20.27;45.84;93347.41;4928935;29;20714;-52
2023/04/01 12:15:33;;;;;;;6.30;2.77;;;;;;;20.21;46.10;93337.97;4929641;29;20249;-50